createdAt,value
2023-01-15T00:00:15.046Z,99.99
2023-01-15T00:01:15.041Z,99.99
2023-01-15T00:02:15.058Z,99.99
2023-01-15T00:03:15.766Z,99.99
2023-01-15T00:04:15.101Z,99.75
2023-01-15T00:05:15.002Z,99.90
2023-01-15T00:06:14.988Z,99.79
2023-01-15T00:07:14.999Z,99.65
2023-01-15T00:08:15.011Z,99.24
2023-01-15T00:09:14.981Z,99.65
2023-01-15T00:10:14.964Z,99.54
2023-01-15T00:11:15.713Z,99.99
2023-01-15T00:12:14.946Z,99.79
2023-01-15T00:13:14.980Z,99.79
2023-01-15T00:14:14.976Z,99.24
2023-01-15T00:15:14.941Z,99.69
2023-01-15T00:16:15.024Z,99.65
2023-01-15T00:17:14.976Z,99.54
2023-01-15T00:18:15.018Z,99.54
2023-01-15T00:19:14.970Z,99.13
2023-01-15T00:20:14.922Z,99.65
2023-01-15T00:21:14.874Z,99.54
2023-01-15T00:22:14.867Z,99.54
2023-01-15T00:23:14.868Z,99.44
2023-01-15T00:24:14.881Z,99.34
2023-01-15T00:25:14.853Z,99.34
2023-01-15T00:26:14.845Z,99.54
2023-01-15T00:27:14.840Z,99.34
2023-01-15T00:28:14.820Z,99.65
2023-01-15T00:29:14.876Z,99.54
2023-01-15T00:30:14.810Z,99.54
2023-01-15T00:31:14.856Z,99.34
2023-01-15T00:32:14.795Z,99.54
2023-01-15T00:33:14.791Z,99.54
2023-01-15T00:34:14.807Z,99.54
2023-01-15T00:35:14.778Z,99.34
2023-01-15T00:36:14.770Z,99.65
2023-01-15T00:37:14.752Z,99.75
2023-01-15T00:38:14.758Z,99.44
2023-01-15T00:39:14.792Z,99.44
2023-01-15T00:40:14.739Z,99.85
2023-01-15T00:41:14.729Z,99.65
2023-01-15T00:42:14.727Z,99.65
2023-01-15T00:43:14.712Z,99.34
2023-01-15T00:44:14.705Z,99.49
2023-01-15T00:45:14.722Z,99.13
2023-01-15T00:46:14.729Z,99.65
2023-01-15T00:47:14.713Z,99.65
2023-01-15T00:48:14.670Z,99.79
2023-01-15T00:49:14.714Z,99.24
2023-01-15T00:50:14.847Z,99.44
2023-01-15T00:51:14.644Z,99.65
2023-01-15T00:52:14.639Z,99.44
2023-01-15T00:53:14.646Z,99.24
2023-01-15T00:54:14.625Z,99.34
2023-01-15T00:55:14.660Z,99.99
2023-01-15T00:56:14.629Z,99.44
2023-01-15T00:57:14.614Z,99.65
2023-01-15T00:58:14.603Z,99.85
2023-01-15T00:59:14.607Z,99.85
2023-01-15T01:00:14.628Z,99.54
2023-01-15T01:01:14.638Z,99.13
2023-01-15T01:02:14.678Z,99.75
2023-01-15T01:03:14.580Z,99.90
2023-01-15T01:04:14.555Z,99.75
2023-01-15T01:05:14.586Z,99.44
2023-01-15T01:06:15.102Z,99.44
2023-01-15T01:07:14.543Z,99.65
2023-01-15T01:08:14.526Z,99.34
2023-01-15T01:09:14.520Z,99.75
2023-01-15T01:10:14.544Z,99.75
2023-01-15T01:11:14.508Z,99.85
2023-01-15T01:12:14.514Z,99.95
2023-01-15T01:13:14.494Z,99.65
2023-01-15T01:14:14.485Z,99.65
2023-01-15T01:15:14.513Z,99.85
2023-01-15T01:16:14.493Z,99.65
2023-01-15T01:17:14.458Z,99.99
2023-01-15T01:18:14.448Z,99.95
2023-01-15T01:19:14.438Z,99.95
2023-01-15T01:20:14.491Z,99.95
2023-01-15T01:21:14.428Z,99.65
2023-01-15T01:22:14.425Z,99.95
2023-01-15T01:23:14.414Z,99.65
2023-01-15T01:24:14.429Z,99.54
2023-01-15T01:25:14.427Z,99.44
2023-01-15T01:26:14.405Z,99.03
2023-01-15T01:27:14.391Z,98.99
2023-01-15T01:28:14.372Z,99.44
2023-01-15T01:29:14.364Z,97.91
2023-01-15T01:30:14.388Z,98.00
2023-01-15T01:31:14.376Z,98.42
2023-01-15T01:32:14.355Z,98.21
2023-01-15T01:33:14.358Z,97.70
2023-01-15T01:34:14.341Z,97.74
2023-01-15T01:35:14.351Z,98.62
2023-01-15T01:36:14.347Z,98.42
2023-01-15T01:37:14.305Z,98.25
2023-01-15T01:38:14.305Z,98.52
2023-01-15T01:39:14.300Z,98.42
2023-01-15T01:40:14.291Z,97.95
2023-01-15T01:41:14.302Z,98.62
2023-01-15T01:42:14.273Z,98.77
2023-01-15T01:43:14.263Z,98.57
2023-01-15T01:44:14.255Z,98.36
2023-01-15T01:45:14.249Z,98.36
2023-01-15T01:46:14.258Z,98.46
2023-01-15T01:47:14.227Z,98.57
2023-01-15T01:48:14.229Z,98.41
2023-01-15T01:49:14.240Z,98.92
2023-01-15T01:50:14.206Z,98.51
2023-01-15T01:51:14.226Z,98.61
2023-01-15T01:52:14.224Z,98.61
2023-01-15T01:53:14.189Z,98.51
2023-01-15T01:54:14.213Z,98.35
2023-01-15T01:55:14.178Z,98.66
2023-01-15T01:56:14.201Z,98.66
2023-01-15T01:57:14.156Z,98.76
2023-01-15T01:58:14.173Z,98.45
2023-01-15T01:59:14.130Z,98.08
2023-01-15T02:00:14.134Z,98.70
2023-01-15T02:01:14.313Z,97.99
2023-01-15T02:02:14.236Z,97.78
2023-01-15T02:03:14.113Z,97.78
2023-01-15T02:04:14.104Z,97.16
2023-01-15T02:05:14.098Z,95.46
2023-01-15T02:06:14.117Z,95.36
2023-01-15T02:07:14.076Z,95.36
2023-01-15T02:08:14.064Z,94.95
2023-01-15T02:09:14.064Z,95.67
2023-01-15T02:10:14.064Z,95.15
2023-01-15T02:11:14.075Z,94.39
2023-01-15T02:12:14.047Z,94.59
2023-01-15T02:13:14.039Z,94.54
2023-01-15T02:14:14.024Z,94.33
2023-01-15T02:15:14.035Z,94.33
2023-01-15T02:16:14.057Z,95.01
2023-01-15T02:17:14.037Z,94.54
2023-01-15T02:18:13.991Z,94.74
2023-01-15T02:19:14.010Z,94.43
2023-01-15T02:20:13.978Z,94.84
2023-01-15T02:21:13.999Z,95.05
2023-01-15T02:22:13.965Z,94.54
2023-01-15T02:23:13.956Z,94.84
2023-01-15T02:24:13.951Z,94.74
2023-01-15T02:25:13.940Z,94.68
2023-01-15T02:26:13.954Z,94.74
2023-01-15T02:27:13.921Z,94.33
2023-01-15T02:28:13.916Z,94.23
2023-01-15T02:29:13.936Z,94.27
2023-01-15T02:30:13.937Z,94.37
2023-01-15T02:31:13.974Z,94.48
2023-01-15T02:32:13.881Z,95.30
2023-01-15T02:33:13.890Z,95.09
2023-01-15T02:34:13.869Z,95.50
2023-01-15T02:35:13.865Z,94.99
2023-01-15T02:36:13.875Z,94.68
2023-01-15T02:37:13.852Z,94.37
2023-01-15T02:38:13.839Z,93.14
2023-01-15T02:39:13.823Z,93.18
2023-01-15T02:40:13.818Z,94.31
2023-01-15T02:41:13.814Z,93.86
2023-01-15T02:42:13.831Z,94.21
2023-01-15T02:43:13.802Z,94.52
2023-01-15T02:44:13.795Z,94.62
2023-01-15T02:45:13.788Z,94.11
2023-01-15T02:46:13.778Z,93.90
2023-01-15T02:47:13.792Z,94.52
2023-01-15T02:48:13.764Z,94.26
2023-01-15T02:49:13.752Z,93.29
2023-01-15T02:50:13.735Z,93.12
2023-01-15T02:51:13.754Z,92.82
2023-01-15T02:52:13.753Z,92.40
2023-01-15T02:53:13.719Z,92.40
2023-01-15T02:54:13.734Z,93.12
2023-01-15T02:55:13.721Z,92.40
2023-01-15T02:56:13.701Z,93.27
2023-01-15T02:57:13.718Z,93.16
2023-01-15T02:58:13.701Z,93.99
2023-01-15T02:59:13.697Z,93.48
2023-01-15T03:00:13.674Z,93.16
2023-01-15T03:01:13.724Z,93.27
2023-01-15T03:02:13.848Z,93.27
2023-01-15T03:03:13.651Z,94.20
2023-01-15T03:04:13.659Z,93.58
2023-01-15T03:05:13.634Z,94.20
2023-01-15T03:06:13.607Z,94.51
2023-01-15T03:07:13.645Z,94.40
2023-01-15T03:08:13.609Z,94.40
2023-01-15T03:09:13.592Z,94.30
2023-01-15T03:10:13.595Z,94.60
2023-01-15T03:11:13.593Z,94.81
2023-01-15T03:12:13.599Z,95.02
2023-01-15T03:13:13.563Z,94.92
2023-01-15T03:14:13.560Z,95.23
2023-01-15T03:15:13.591Z,95.02
2023-01-15T03:16:13.592Z,94.71
2023-01-15T03:17:13.567Z,95.02
2023-01-15T03:18:13.525Z,95.33
2023-01-15T03:19:14.551Z,95.53
2023-01-15T03:20:13.502Z,95.89
2023-01-15T03:21:13.505Z,95.68
2023-01-15T03:22:13.513Z,95.17
2023-01-15T03:23:13.504Z,95.17
2023-01-15T03:24:13.563Z,95.99
2023-01-15T03:25:13.472Z,95.68
2023-01-15T03:26:13.463Z,95.99
2023-01-15T03:27:13.480Z,95.99
2023-01-15T03:28:14.458Z,95.48
2023-01-15T03:29:13.446Z,96.30
2023-01-15T03:30:13.464Z,96.20
2023-01-15T03:31:13.422Z,95.99
2023-01-15T03:32:13.445Z,95.99
2023-01-15T03:33:13.409Z,96.09
2023-01-15T03:34:13.402Z,95.78
2023-01-15T03:35:13.400Z,95.68
2023-01-15T03:36:13.390Z,95.68
2023-01-15T03:37:13.417Z,95.89
2023-01-15T03:38:13.379Z,95.21
2023-01-15T03:39:13.372Z,95.10
2023-01-15T03:40:13.379Z,95.42
2023-01-15T03:41:13.360Z,96.14
2023-01-15T03:42:13.367Z,94.90
2023-01-15T03:43:13.349Z,94.74
2023-01-15T03:44:13.332Z,94.74
2023-01-15T03:45:13.322Z,94.49
2023-01-15T03:46:13.327Z,94.49
2023-01-15T03:47:13.337Z,94.59
2023-01-15T03:48:13.297Z,95.05
2023-01-15T03:49:13.289Z,94.74
2023-01-15T03:50:13.283Z,94.74
2023-01-15T03:51:13.271Z,94.53
2023-01-15T03:52:13.320Z,92.47
2023-01-15T03:53:13.275Z,92.99
2023-01-15T03:54:13.285Z,91.64
2023-01-15T03:55:13.247Z,90.55
2023-01-15T03:56:13.240Z,90.55
2023-01-15T03:57:13.264Z,90.35
2023-01-15T03:58:13.228Z,90.35
2023-01-15T03:59:13.211Z,90.45
2023-01-15T04:00:13.210Z,90.39
2023-01-15T04:01:13.303Z,90.59
2023-01-15T04:02:13.290Z,90.91
2023-01-15T04:03:13.210Z,90.70
2023-01-15T04:04:13.206Z,91.01
2023-01-15T04:05:13.167Z,91.42
2023-01-15T04:06:13.168Z,91.32
2023-01-15T04:07:13.155Z,91.52
2023-01-15T04:08:13.175Z,90.80
2023-01-15T04:09:13.142Z,90.91
2023-01-15T04:10:13.135Z,91.63
2023-01-15T04:11:13.133Z,91.94
2023-01-15T04:12:13.121Z,91.36
2023-01-15T04:13:13.147Z,91.88
2023-01-15T04:14:13.101Z,92.40
2023-01-15T04:15:13.165Z,92.40
2023-01-15T04:16:13.085Z,93.12
2023-01-15T04:17:13.081Z,92.70
2023-01-15T04:18:13.096Z,92.91
2023-01-15T04:19:13.071Z,93.63
2023-01-15T04:20:13.075Z,92.91
2023-01-15T04:21:13.038Z,92.70
2023-01-15T04:22:13.053Z,92.50
2023-01-15T04:23:13.056Z,92.40
2023-01-15T04:24:13.019Z,92.70
2023-01-15T04:25:13.011Z,93.22
2023-01-15T04:26:13.017Z,92.40
2023-01-15T04:27:13.006Z,92.80
2023-01-15T04:28:13.025Z,92.33
2023-01-15T04:29:12.992Z,91.92
2023-01-15T04:30:12.997Z,91.61
2023-01-15T04:31:12.992Z,90.83
2023-01-15T04:32:12.954Z,91.30
2023-01-15T04:33:12.985Z,91.40
2023-01-15T04:34:12.944Z,91.13
2023-01-15T04:35:12.941Z,89.48
2023-01-15T04:36:12.926Z,89.38
2023-01-15T04:37:12.922Z,89.22
2023-01-15T04:38:12.947Z,90.20
2023-01-15T04:39:12.906Z,90.52
2023-01-15T04:40:12.905Z,90.93
2023-01-15T04:41:12.898Z,90.97
2023-01-15T04:42:12.885Z,90.83
2023-01-15T04:43:12.912Z,91.13
2023-01-15T04:44:12.863Z,90.72
2023-01-15T04:45:12.862Z,91.03
2023-01-15T04:46:12.890Z,91.65
2023-01-15T04:47:12.840Z,91.80
2023-01-15T04:48:12.871Z,92.17
2023-01-15T04:49:12.832Z,92.93
2023-01-15T04:50:12.824Z,93.14
2023-01-15T04:51:12.804Z,92.21
2023-01-15T04:52:12.797Z,92.11
2023-01-15T04:53:12.801Z,92.52
2023-01-15T04:54:12.815Z,92.83
2023-01-15T04:55:12.775Z,92.83
2023-01-15T04:56:12.768Z,92.00
2023-01-15T04:57:12.764Z,92.11
2023-01-15T04:58:12.749Z,91.69
2023-01-15T04:59:12.775Z,92.32
2023-01-15T05:00:12.736Z,92.21
2023-01-15T05:01:12.853Z,91.94
2023-01-15T05:02:15.121Z,92.63
2023-01-15T05:03:12.724Z,92.42
2023-01-15T05:04:12.771Z,92.25
2023-01-15T05:05:12.713Z,92.36
2023-01-15T05:06:12.703Z,92.05
2023-01-15T05:07:12.702Z,90.60
2023-01-15T05:08:12.683Z,90.60
2023-01-15T05:09:12.706Z,90.80
2023-01-15T05:10:12.670Z,91.32
2023-01-15T05:11:12.656Z,91.84
2023-01-15T05:12:12.656Z,91.84
2023-01-15T05:13:12.664Z,91.63
2023-01-15T05:14:12.659Z,91.74
2023-01-15T05:15:12.628Z,92.15
2023-01-15T05:16:12.706Z,92.15
2023-01-15T05:17:12.611Z,92.21
2023-01-15T05:18:12.601Z,92.05
2023-01-15T05:19:12.957Z,91.53
2023-01-15T05:20:12.599Z,91.47
2023-01-15T05:21:12.578Z,91.53
2023-01-15T05:22:12.578Z,91.99
2023-01-15T05:23:12.573Z,92.09
2023-01-15T05:24:12.591Z,91.42
2023-01-15T05:25:12.560Z,92.40
2023-01-15T05:26:12.548Z,91.67
2023-01-15T05:27:12.545Z,91.99
2023-01-15T05:28:12.536Z,91.99
2023-01-15T05:29:12.573Z,91.16
2023-01-15T05:30:12.531Z,91.99
2023-01-15T05:31:12.533Z,92.30
2023-01-15T05:32:12.503Z,91.88
2023-01-15T05:33:12.503Z,91.78
2023-01-15T05:34:12.521Z,91.78
2023-01-15T05:35:12.483Z,92.19
2023-01-15T05:36:12.475Z,92.09
2023-01-15T05:37:12.469Z,92.09
2023-01-15T05:38:12.462Z,92.71
2023-01-15T05:39:12.481Z,92.91
2023-01-15T05:40:12.444Z,92.61
2023-01-15T05:41:12.447Z,92.09
2023-01-15T05:42:12.436Z,92.44
2023-01-15T05:43:12.424Z,91.93
2023-01-15T05:44:12.444Z,92.13
2023-01-15T05:45:12.414Z,91.88
2023-01-15T05:46:12.458Z,91.82
2023-01-15T05:47:12.413Z,92.13
2023-01-15T05:48:12.385Z,92.34
2023-01-15T05:49:12.418Z,92.34
2023-01-15T05:50:12.374Z,92.44
2023-01-15T05:51:12.369Z,92.65
2023-01-15T05:52:12.354Z,92.61
2023-01-15T05:53:12.349Z,93.37
2023-01-15T05:54:12.367Z,93.06
2023-01-15T05:55:12.336Z,92.91
2023-01-15T05:56:12.333Z,93.27
2023-01-15T05:57:12.319Z,92.96
2023-01-15T05:58:12.320Z,93.99
2023-01-15T05:59:12.334Z,93.89
2023-01-15T06:00:12.311Z,94.62
2023-01-15T06:01:12.326Z,94.72
2023-01-15T06:02:12.296Z,94.72
2023-01-15T06:03:12.278Z,95.14
2023-01-15T06:04:12.629Z,94.93
2023-01-15T06:05:12.267Z,95.34
2023-01-15T06:06:12.249Z,95.34
2023-01-15T06:07:12.242Z,95.14
2023-01-15T06:08:12.231Z,95.14
2023-01-15T06:09:12.262Z,95.24
2023-01-15T06:10:12.222Z,94.72
2023-01-15T06:11:12.208Z,95.18
2023-01-15T06:12:12.209Z,95.54
2023-01-15T06:13:12.188Z,95.44
2023-01-15T06:14:13.217Z,95.65
2023-01-15T06:15:12.182Z,95.34
2023-01-15T06:16:12.227Z,95.54
2023-01-15T06:17:12.177Z,95.80
2023-01-15T06:18:12.167Z,95.90
2023-01-15T06:19:12.187Z,96.01
2023-01-15T06:20:12.189Z,96.52
2023-01-15T06:21:12.174Z,96.62
2023-01-15T06:22:12.165Z,96.31
2023-01-15T06:23:12.124Z,96.42
2023-01-15T06:24:12.147Z,96.01
2023-01-15T06:25:12.112Z,96.62
2023-01-15T06:26:12.108Z,96.42
2023-01-15T06:27:12.095Z,96.31
2023-01-15T06:28:12.087Z,96.52
2023-01-15T06:29:12.079Z,97.04
2023-01-15T06:30:12.099Z,96.94
2023-01-15T06:31:12.100Z,96.73
2023-01-15T06:32:12.062Z,96.62
2023-01-15T06:33:12.055Z,96.47
2023-01-15T06:34:12.049Z,95.95
2023-01-15T06:35:12.062Z,95.80
2023-01-15T06:36:12.032Z,95.70
2023-01-15T06:37:12.025Z,95.84
2023-01-15T06:38:12.014Z,95.43
2023-01-15T06:39:12.018Z,95.32
2023-01-15T06:40:12.033Z,95.74
2023-01-15T06:41:11.991Z,95.84
2023-01-15T06:42:11.988Z,95.95
2023-01-15T06:43:11.985Z,96.26
2023-01-15T06:44:11.965Z,95.95
2023-01-15T06:45:12.004Z,95.84
2023-01-15T06:46:12.036Z,96.05
2023-01-15T06:47:11.948Z,96.05
2023-01-15T06:48:11.937Z,95.64
2023-01-15T06:49:11.935Z,95.53
2023-01-15T06:50:11.955Z,94.81
2023-01-15T06:51:11.916Z,95.43
2023-01-15T06:52:12.037Z,95.43
2023-01-15T06:53:11.904Z,95.32
2023-01-15T06:54:11.898Z,95.26
2023-01-15T06:55:11.917Z,95.22
2023-01-15T06:56:11.877Z,94.91
2023-01-15T06:57:11.896Z,95.22
2023-01-15T06:58:11.866Z,95.26
2023-01-15T06:59:12.629Z,95.43
2023-01-15T07:00:12.873Z,95.53
2023-01-15T07:01:11.907Z,95.43
2023-01-15T07:02:11.850Z,95.53
2023-01-15T07:03:11.831Z,95.53
2023-01-15T07:04:11.850Z,95.95
2023-01-15T07:05:11.834Z,95.84
2023-01-15T07:06:11.820Z,95.84
2023-01-15T07:07:11.802Z,95.95
2023-01-15T07:08:11.784Z,96.26
2023-01-15T07:09:11.788Z,96.67
2023-01-15T07:10:11.807Z,96.36
2023-01-15T07:11:11.770Z,97.03
2023-01-15T07:12:11.760Z,96.92
2023-01-15T07:13:11.761Z,96.67
2023-01-15T07:14:11.746Z,96.41
2023-01-15T07:15:11.769Z,97.03
2023-01-15T07:16:11.751Z,97.13
2023-01-15T07:17:11.726Z,96.67
2023-01-15T07:18:11.721Z,97.29
2023-01-15T07:19:11.713Z,97.03
2023-01-15T07:20:11.731Z,97.19
2023-01-15T07:21:11.703Z,97.09
2023-01-15T07:22:11.703Z,97.09
2023-01-15T07:23:11.684Z,96.47
2023-01-15T07:24:11.683Z,96.78
2023-01-15T07:25:11.701Z,96.82
2023-01-15T07:26:11.660Z,96.51
2023-01-15T07:27:11.649Z,96.41
2023-01-15T07:28:11.649Z,95.68
2023-01-15T07:29:11.639Z,95.16
2023-01-15T07:30:11.636Z,95.47
2023-01-15T07:31:11.673Z,95.37
2023-01-15T07:32:11.653Z,94.74
2023-01-15T07:33:11.613Z,94.74
2023-01-15T07:34:11.612Z,94.74
2023-01-15T07:35:11.595Z,95.43
2023-01-15T07:36:11.621Z,95.01
2023-01-15T07:37:11.619Z,95.01
2023-01-15T07:38:11.584Z,95.12
2023-01-15T07:39:11.569Z,95.37
2023-01-15T07:40:11.567Z,95.32
2023-01-15T07:41:11.579Z,95.22
2023-01-15T07:42:11.550Z,95.06
2023-01-15T07:43:11.540Z,95.26
2023-01-15T07:44:11.536Z,95.12
2023-01-15T07:45:11.529Z,95.12
2023-01-15T07:46:11.542Z,95.32
2023-01-15T07:47:11.503Z,95.53
2023-01-15T07:48:11.496Z,95.22
2023-01-15T07:49:11.477Z,95.43
2023-01-15T07:50:12.484Z,95.32
2023-01-15T07:51:11.500Z,95.16
2023-01-15T07:52:11.470Z,95.01
2023-01-15T07:53:11.464Z,93.98
2023-01-15T07:54:11.479Z,93.98
2023-01-15T07:55:11.447Z,93.56
2023-01-15T07:56:11.445Z,93.25
2023-01-15T07:57:11.444Z,93.77
2023-01-15T07:58:11.424Z,93.46
2023-01-15T07:59:11.439Z,93.87
2023-01-15T08:00:11.405Z,94.49
2023-01-15T08:01:11.637Z,94.08
2023-01-15T08:02:11.401Z,95.01
2023-01-15T08:03:11.390Z,95.01
2023-01-15T08:04:11.439Z,94.81
2023-01-15T08:05:11.373Z,94.70
2023-01-15T08:06:11.360Z,94.81
2023-01-15T08:07:11.351Z,93.98
2023-01-15T08:08:11.348Z,93.87
2023-01-15T08:09:11.364Z,93.98
2023-01-15T08:10:11.333Z,94.18
2023-01-15T08:11:11.317Z,94.18
2023-01-15T08:12:11.318Z,94.60
2023-01-15T08:13:11.309Z,94.49
2023-01-15T08:14:11.321Z,94.70
2023-01-15T08:15:11.291Z,94.81
2023-01-15T08:16:11.346Z,94.81
2023-01-15T08:17:11.277Z,95.32
2023-01-15T08:18:11.278Z,95.22
2023-01-15T08:19:11.283Z,95.32
2023-01-15T08:20:11.250Z,94.60
2023-01-15T08:21:11.241Z,95.12
2023-01-15T08:22:11.238Z,94.91
2023-01-15T08:23:11.230Z,94.39
2023-01-15T08:24:11.252Z,94.29
2023-01-15T08:25:11.213Z,93.77
2023-01-15T08:26:11.213Z,93.66
2023-01-15T08:27:11.194Z,94.04
2023-01-15T08:28:11.189Z,93.41
2023-01-15T08:29:11.212Z,93.46
2023-01-15T08:30:11.187Z,93.83
2023-01-15T08:31:11.178Z,93.31
2023-01-15T08:32:11.157Z,93.41
2023-01-15T08:33:11.158Z,93.52
2023-01-15T08:34:11.147Z,93.73
2023-01-15T08:35:11.174Z,93.93
2023-01-15T08:36:11.127Z,93.83
2023-01-15T08:37:11.120Z,92.18
2023-01-15T08:38:11.109Z,91.45
2023-01-15T08:39:11.106Z,91.80
2023-01-15T08:40:11.133Z,92.43
2023-01-15T08:41:11.085Z,92.80
2023-01-15T08:42:11.080Z,93.31
2023-01-15T08:43:11.075Z,93.04
2023-01-15T08:44:11.076Z,93.31
2023-01-15T08:45:11.101Z,93.62
2023-01-15T08:46:11.189Z,93.52
2023-01-15T08:47:11.049Z,93.21
2023-01-15T08:48:12.040Z,93.25
2023-01-15T08:49:11.056Z,92.90
2023-01-15T08:50:11.085Z,92.90
2023-01-15T08:51:11.013Z,91.80
2023-01-15T08:52:11.023Z,92.53
2023-01-15T08:53:11.003Z,92.32
2023-01-15T08:54:11.007Z,92.32
2023-01-15T08:55:11.020Z,93.00
2023-01-15T08:56:10.981Z,92.84
2023-01-15T08:57:10.972Z,92.53
2023-01-15T08:58:10.961Z,91.86
2023-01-15T08:59:10.974Z,92.28
2023-01-15T09:00:11.000Z,92.18
2023-01-15T09:01:11.043Z,92.11
2023-01-15T09:02:10.982Z,91.70
2023-01-15T09:03:10.941Z,92.22
2023-01-15T09:04:10.919Z,92.32
2023-01-15T09:05:10.939Z,92.43
2023-01-15T09:06:10.915Z,93.21
2023-01-15T09:07:10.930Z,93.25
2023-01-15T09:08:10.889Z,93.00
2023-01-15T09:09:10.892Z,91.91
2023-01-15T09:10:10.899Z,92.01
2023-01-15T09:11:10.861Z,92.43
2023-01-15T09:12:10.865Z,92.32
2023-01-15T09:13:10.860Z,92.43
2023-01-15T09:14:55.975Z,92.84
2023-01-15T09:15:11.861Z,92.53
2023-01-15T09:16:10.828Z,92.01
2023-01-15T09:17:10.819Z,93.04
2023-01-15T09:18:10.830Z,93.25
2023-01-15T09:19:10.809Z,93.04
2023-01-15T09:20:10.821Z,93.46
2023-01-15T09:21:10.797Z,93.46
2023-01-15T09:22:10.792Z,92.22
2023-01-15T09:23:10.783Z,92.43
2023-01-15T09:24:10.768Z,92.11
2023-01-15T09:25:10.829Z,92.32
2023-01-15T09:26:10.757Z,90.87
2023-01-15T09:27:10.744Z,91.28
2023-01-15T09:28:10.745Z,91.18
2023-01-15T09:29:10.790Z,90.97
2023-01-15T09:30:10.750Z,91.18
2023-01-15T09:31:10.727Z,90.97
2023-01-15T09:32:10.715Z,91.03
2023-01-15T09:33:10.714Z,91.03
2023-01-15T09:34:10.728Z,90.83
2023-01-15T09:35:10.713Z,90.93
2023-01-15T09:36:10.674Z,90.93
2023-01-15T09:37:10.681Z,91.14
2023-01-15T09:38:10.669Z,90.93
2023-01-15T09:39:10.663Z,90.93
2023-01-15T09:40:10.674Z,90.72
2023-01-15T09:41:10.644Z,90.93
2023-01-15T09:42:10.701Z,90.62
2023-01-15T09:43:10.649Z,91.14
2023-01-15T09:44:10.623Z,90.93
2023-01-15T09:45:10.643Z,90.93
2023-01-15T09:46:10.648Z,90.72
2023-01-15T09:47:10.592Z,90.87
2023-01-15T09:48:10.592Z,90.72
2023-01-15T09:49:10.597Z,90.93
2023-01-15T09:50:10.624Z,91.35
2023-01-15T09:51:10.598Z,90.83
2023-01-15T09:52:10.563Z,91.14
2023-01-15T09:53:10.555Z,90.97
2023-01-15T09:54:10.552Z,92.22
2023-01-15T09:55:10.593Z,91.91
2023-01-15T09:56:10.536Z,91.85
2023-01-15T09:57:10.520Z,91.74
2023-01-15T09:58:10.516Z,92.47
2023-01-15T09:59:10.510Z,92.78
2023-01-15T10:00:10.562Z,92.36
2023-01-15T10:01:10.577Z,91.74
2023-01-15T10:02:10.498Z,93.50
2023-01-15T10:03:10.490Z,93.29
2023-01-15T10:04:10.490Z,93.08
2023-01-15T10:05:10.458Z,93.60
2023-01-15T10:06:10.482Z,93.50
2023-01-15T10:07:10.444Z,93.60
2023-01-15T10:08:10.443Z,93.50
2023-01-15T10:09:10.457Z,93.60
2023-01-15T10:10:10.417Z,93.50
2023-01-15T10:11:10.439Z,93.08
2023-01-15T10:12:10.402Z,93.40
2023-01-15T10:13:10.401Z,93.40
2023-01-15T10:14:10.388Z,92.98
2023-01-15T10:15:10.383Z,92.78
2023-01-15T10:16:10.436Z,92.47
2023-01-15T10:17:10.373Z,92.36
2023-01-15T10:18:10.360Z,92.26
2023-01-15T10:19:10.354Z,92.47
2023-01-15T10:20:10.347Z,93.04
2023-01-15T10:21:10.373Z,92.47
2023-01-15T10:22:10.329Z,92.57
2023-01-15T10:23:10.318Z,92.98
2023-01-15T10:24:10.584Z,92.98
2023-01-15T10:25:10.304Z,93.19
2023-01-15T10:26:10.329Z,92.88
2023-01-15T10:27:10.303Z,92.26
2023-01-15T10:28:10.291Z,92.16
2023-01-15T10:29:10.274Z,92.98
2023-01-15T10:30:10.348Z,92.78
2023-01-15T10:31:10.312Z,93.29
2023-01-15T10:32:10.257Z,92.88
2023-01-15T10:33:10.249Z,93.60
2023-01-15T10:34:10.247Z,93.40
2023-01-15T10:35:10.238Z,92.98
2023-01-15T10:36:10.263Z,92.47
2023-01-15T10:37:10.218Z,93.29
2023-01-15T10:38:10.208Z,92.84
2023-01-15T10:39:42.727Z,93.08
2023-01-15T10:40:10.200Z,92.36
2023-01-15T10:41:10.215Z,93.40
2023-01-15T10:42:10.192Z,92.98
2023-01-15T10:43:10.193Z,93.08
2023-01-15T10:44:11.166Z,93.46
2023-01-15T10:45:10.237Z,93.60
2023-01-15T10:46:10.298Z,93.60
2023-01-15T10:47:10.148Z,93.04
2023-01-15T10:48:10.123Z,92.88
2023-01-15T10:49:11.124Z,93.50
2023-01-15T10:50:10.199Z,92.88
2023-01-15T10:51:10.213Z,93.19
2023-01-15T10:52:10.114Z,93.56
2023-01-15T10:53:10.098Z,93.35
2023-01-15T10:54:10.087Z,93.98
2023-01-15T10:55:10.090Z,93.04
2023-01-15T10:56:10.145Z,93.15
2023-01-15T10:57:10.077Z,92.94
2023-01-15T10:58:11.070Z,93.04
2023-01-15T10:59:11.057Z,92.68
2023-01-15T11:00:10.137Z,93.60
2023-01-15T11:01:10.164Z,93.46
2023-01-15T11:02:10.210Z,93.46
2023-01-15T11:03:10.070Z,93.25
2023-01-15T11:04:10.113Z,93.41
2023-01-15T11:05:10.016Z,93.56
2023-01-15T11:06:10.233Z,93.46
2023-01-15T11:07:10.026Z,93.15
2023-01-15T11:08:45.228Z,93.25
2023-01-15T11:09:12.436Z,93.46
2023-01-15T11:10:11.230Z,93.52
2023-01-15T11:11:10.250Z,92.94
2023-01-15T11:12:09.968Z,93.35
2023-01-15T11:13:09.949Z,92.74
2023-01-15T11:14:10.952Z,93.04
2023-01-15T11:15:09.979Z,93.04
2023-01-15T11:16:10.000Z,93.31
2023-01-15T11:17:09.920Z,93.15
2023-01-15T11:18:09.926Z,93.66
2023-01-15T11:19:09.911Z,93.04
2023-01-15T11:20:09.892Z,92.94
2023-01-15T11:21:09.885Z,93.04
2023-01-15T11:22:09.911Z,93.04
2023-01-15T11:23:09.871Z,93.15
2023-01-15T11:24:09.876Z,93.00
2023-01-15T11:25:09.866Z,92.80
2023-01-15T11:26:09.864Z,93.31
2023-01-15T11:27:09.865Z,93.21
2023-01-15T11:28:09.841Z,92.69
2023-01-15T11:29:09.850Z,93.00
2023-01-15T11:30:09.831Z,92.80
2023-01-15T11:31:09.976Z,93.46
2023-01-15T11:32:09.857Z,93.46
2023-01-15T11:33:09.794Z,92.84
2023-01-15T11:34:09.793Z,93.52
2023-01-15T11:35:09.772Z,93.41
2023-01-15T11:36:09.768Z,93.41
2023-01-15T11:37:09.792Z,92.90
2023-01-15T11:38:09.766Z,93.16
2023-01-15T11:39:09.752Z,92.85
2023-01-15T11:40:09.750Z,92.34
2023-01-15T11:41:09.731Z,92.55
2023-01-15T11:42:09.743Z,92.13
2023-01-15T11:43:09.762Z,91.72
2023-01-15T11:44:09.732Z,91.72
2023-01-15T11:45:09.707Z,91.67
2023-01-15T11:46:09.773Z,91.82
2023-01-15T11:47:09.715Z,91.61
2023-01-15T11:48:09.703Z,91.26
2023-01-15T11:49:09.672Z,90.84
2023-01-15T11:50:09.672Z,91.20
2023-01-15T11:51:09.653Z,90.78
2023-01-15T11:52:09.680Z,91.05
2023-01-15T11:53:09.638Z,90.99
2023-01-15T11:54:09.635Z,91.26
2023-01-15T11:55:09.624Z,91.26
2023-01-15T11:56:09.630Z,90.95
2023-01-15T11:57:09.652Z,90.74
2023-01-15T11:58:09.599Z,91.16
2023-01-15T11:59:09.595Z,90.84
2023-01-15T12:00:09.583Z,90.80
2023-01-15T12:01:09.607Z,90.97
2023-01-15T12:02:09.610Z,90.14
2023-01-15T12:03:09.564Z,90.20
2023-01-15T12:04:09.633Z,90.00
2023-01-15T12:05:09.555Z,89.65
2023-01-15T12:06:09.558Z,89.17
2023-01-15T12:07:09.586Z,88.82
2023-01-15T12:08:09.533Z,88.55
2023-01-15T12:09:09.522Z,87.99
2023-01-15T12:10:09.522Z,88.10
2023-01-15T12:11:25.565Z,88.10
2023-01-15T12:12:11.530Z,87.31
2023-01-15T12:13:09.505Z,87.00
2023-01-15T12:14:09.503Z,87.07
2023-01-15T12:15:09.484Z,86.34
2023-01-15T12:16:09.511Z,85.72
2023-01-15T12:17:09.530Z,85.62
2023-01-15T12:18:09.464Z,85.41
2023-01-15T12:19:09.456Z,84.38
2023-01-15T12:20:09.455Z,85.14
2023-01-15T12:21:09.441Z,85.10
2023-01-15T12:22:09.456Z,84.89
2023-01-15T12:23:09.419Z,85.52
2023-01-15T12:24:09.424Z,86.13
2023-01-15T12:25:09.406Z,84.69
2023-01-15T12:26:09.402Z,84.59
2023-01-15T12:27:09.435Z,84.59
2023-01-15T12:28:09.393Z,85.00
2023-01-15T12:29:09.377Z,84.52
2023-01-15T12:30:09.381Z,84.42
2023-01-15T12:31:09.390Z,84.94
2023-01-15T12:32:09.382Z,84.42
2023-01-15T12:33:09.352Z,84.63
2023-01-15T12:34:09.334Z,84.11
2023-01-15T12:35:09.345Z,84.69
2023-01-15T12:36:09.342Z,84.05
2023-01-15T12:37:09.316Z,84.00
2023-01-15T12:38:10.581Z,84.00
2023-01-15T12:39:09.307Z,83.28
2023-01-15T12:40:09.295Z,83.70
2023-01-15T12:41:09.289Z,83.73
2023-01-15T12:42:09.289Z,84.11
2023-01-15T12:43:09.290Z,81.21
2023-01-15T12:44:09.261Z,81.52
2023-01-15T12:45:09.276Z,82.15
2023-01-15T12:46:09.244Z,82.00
2023-01-15T12:47:09.238Z,82.25
2023-01-15T12:48:09.260Z,82.10
2023-01-15T12:49:09.242Z,82.00
2023-01-15T12:50:09.221Z,82.10
2023-01-15T12:51:09.239Z,81.70
2023-01-15T12:52:09.203Z,81.56